Content
SEND FEEDBACK

Daily
Averages
Monthly
Summary
United Kingdom

ST ALBANS, ENGLAND


Home > Europe > United Kingdom > England
Elevation: 420 feet     Latitude: 51 48N     Longitude: 000 21W

WEATHER
 
SELECT A DAY
Number of Records: 288,885;   Date Range: 7/1/96 - 7/13/14
 
SHARE

PRINT THIS DATA

[ ← Previous Day ]
WEATHER ALMANAC - FEBRUARY 8, 2014
[ Next Day → ]
[ °C ]   °F
Weather ElementAverageHighLow
Temperature43.9 °F46.4 °F (3:20 am)42.8 °F (12:50 am)
Dewpoint38.8 °F44.6 °F (2:50 am)33.8 °F (10:50 pm)
Humidity82.6 %100 % (12:50 am)70 % (10:50 pm)
Barometer28.84 in29.03 in (12:50 am)28.74 in (4:50 pm)
Wind Speed19 mph24.2 mph (5:20 pm)
Wind Gust46 mph (10:20 am)
Weather ElementAverage
Visibility5.9 mi
Wind DirectionSSW (197 °)

Weather ElementTotal
Precipitation---
Heating Degree Days20.4 (Base 65)
Averaged from 47 records on February 8, 2014
WEATHER CONDITIONS BREAKOUT
WIND DIRECTION BREAKOUT
WEATHER BY HOUR - FEBRUARY 8, 2014
[ °C ]   °F
Local TimeTemperatureDewpointHumidityBarometerVisibilityWind DirectionWind SpeedGust SpeedPrecipitationEventsConditions
12:50 AM42.8 °F42.8 °F100 %29.03 in5.0 miSouth (170°)19.6 mphRainLight Rain
1:20 AM44.6 °F42.8 °F93 %29.00 in6.2 miSouth (170°)18.4 mphRainLight Rain
1:50 AM44.6 °F42.8 °F93 %28.97 in3.7 miSSE (160°)18.4 mph31.1 mphRainLight Rain
2:20 AM44.6 °F42.8 °F93 %28.94 in3.1 miSouth (170°)15.0 mphRainRain
2:50 AM44.6 °F44.6 °F100 %28.91 in3.7 miSouth (180°)19.6 mph36.8 mphRainRain
3:20 AM46.4 °F44.6 °F93 %28.91 in6.2 miSouth (190°)16.1 mphRainLight Rain
3:50 AM46.4 °F44.6 °F93 %28.91 in6.2 miSouth (180°)17.3 mph28.8 mphRainLight Rain
4:20 AM46.4 °F44.6 °F93 %28.88 in6.2 miSouth (180°)15.0 mphMostly Cloudy
4:50 AM46.4 °F44.6 °F93 %28.88 in3.7 miSSW (200°)11.5 mphRainRain
5:20 AM44.6 °F41.0 °F87 %28.88 in6.2 miSSW (200°)13.8 mphPartly Cloudy
5:50 AM44.6 °F41.0 °F87 %28.88 in6.2 miSSW (200°)13.8 mph
6:20 AM44.6 °F41.0 °F87 %28.88 in6.2 miSSW (200°)13.8 mphPartly Cloudy
6:50 AM42.8 °F41.0 °F93 %28.88 in6.2 miSSW (200°)12.7 mphScattered Clouds
7:20 AM42.8 °F39.2 °F87 %28.88 in6.2 miSSW (200°)15.0 mphPartly Cloudy
7:50 AM42.8 °F41.0 °F93 %28.85 in6.2 miSouth (190°)11.5 mphPartly Cloudy
8:20 AM42.8 °F39.2 °F87 %28.88 in6.2 miSSW (200°)17.3 mphPartly Cloudy
8:50 AM44.6 °F37.4 °F76 %28.85 in6.2 miSSW (200°)15.0 mphPartly Cloudy
9:20 AM44.6 °F37.4 °F76 %28.85 in6.2 miSSW (200°)18.4 mph31.1 mphRainLight Rain Showers
9:50 AM42.8 °F37.4 °F81 %28.85 in6.2 miSSW (210°)21.9 mphPartly Cloudy
10:20 AM42.8 °F39.2 °F87 %28.85 in6.2 miSSW (210°)21.9 mph46.0 mphRainRain Showers
10:50 AM42.8 °F37.4 °F81 %28.85 in6.2 miSSW (200°)18.4 mph32.2 mphScattered Clouds
11:20 AM42.8 °F37.4 °F81 %28.85 in6.2 miSSW (200°)17.3 mphPartly Cloudy
11:50 AM44.6 °F35.6 °F71 %28.82 in6.2 miSSW (200°)20.7 mph32.2 mphScattered Clouds
12:20 PM44.6 °F37.4 °F76 %28.82 in6.2 miSSW (200°)20.7 mph32.2 mphScattered Clouds
12:50 PM44.6 °F35.6 °F71 %28.82 in6.2 miSSW (200°)23.0 mph36.8 mphMostly Cloudy
1:20 PM44.6 °F37.4 °F76 %28.82 in6.2 miSSW (200°)20.7 mphRainLight Rain Showers
1:50 PM42.8 °F39.2 °F87 %28.80 in6.2 miSouth (190°)17.3 mphPartly Cloudy
2:20 PM44.6 °F39.2 °F81 %28.77 in6.2 miSSW (200°)21.9 mph33.4 mphScattered Clouds
2:50 PM44.6 °F37.4 °F76 %28.77 in6.2 miSSW (200°)17.3 mph29.9 mphMostly Cloudy
3:20 PM44.6 °F35.6 °F71 %28.77 in6.2 miSSW (200°)21.9 mph34.5 mphMostly Cloudy
3:50 PM44.6 °F35.6 °F71 %28.77 in6.2 miSouth (190°)21.9 mph35.7 mphMostly Cloudy
4:20 PM44.6 °F35.6 °F71 %28.77 in6.2 miSSW (200°)23.0 mph35.7 mphMostly Cloudy
4:50 PM42.8 °F35.6 °F76 %28.74 in6.2 miSSW (200°)23.0 mph36.8 mphLight Drizzle
5:20 PM42.8 °F37.4 °F81 %28.77 in5.0 miSSW (200°)24.2 mph35.7 mphRainRain
5:50 PM42.8 °F37.4 °F81 %28.77 in6.2 miSSW (200°)21.9 mphRainLight Rain
6:20 PM42.8 °F39.2 °F87 %28.77 in6.2 miSouth (190°)19.6 mph31.1 mphOvercast
6:50 PM42.8 °F39.2 °F87 %28.77 in6.2 miSSW (200°)19.6 mph33.4 mphMostly Cloudy
7:20 PM42.8 °F39.2 °F87 %28.77 in6.2 miSSW (200°)19.6 mphMostly Cloudy
7:50 PM44.6 °F39.2 °F81 %28.77 in6.2 miSSW (200°)19.6 mphLight Drizzle
8:20 PM42.8 °F37.4 °F81 %28.77 in6.2 miSSW (210°)21.9 mphMostly Cloudy
8:50 PM42.8 °F37.4 °F81 %28.80 in6.2 miSSW (210°)19.6 mphMostly Cloudy
9:20 PM44.6 °F37.4 °F76 %28.80 in6.2 miSSW (210°)20.7 mphMostly Cloudy
9:50 PM44.6 °F35.6 °F71 %28.80 in6.2 miSSW (210°)23.0 mphOvercast
10:20 PM42.8 °F35.6 °F76 %28.80 in6.2 miSSW (210°)20.7 mph33.4 mphOvercast
10:50 PM42.8 °F33.8 °F70 %28.80 in6.2 miSSW (210°)24.2 mph39.1 mphMostly Cloudy
11:20 PM42.8 °F33.8 °F70 %28.80 in6.2 miSSW (210°)21.9 mph40.3 mphMostly Cloudy
11:50 PM42.8 °F33.8 °F70 %28.80 in6.2 miSSW (210°)24.2 mphMostly Cloudy
Hourly data recorded from EGGW, located miles away from St Albans, England







STORIES FROM OUR PARTNERS